createdAt,value
2022-09-28T00:13:43.666Z,9.45
2022-09-28T00:33:43.670Z,9.55
2022-09-28T00:53:43.705Z,9.56
2022-09-28T01:13:43.620Z,9.69
2022-09-28T01:33:43.645Z,9.53
2022-09-28T01:53:43.673Z,9.55
2022-09-28T02:13:43.593Z,9.55
2022-09-28T02:33:43.601Z,9.52
2022-09-28T02:53:43.629Z,9.32
2022-09-28T03:13:43.541Z,9.21
2022-09-28T03:33:43.566Z,9.23
2022-09-28T03:53:43.593Z,9.28
2022-09-28T04:13:43.513Z,9.43
2022-09-28T04:33:43.531Z,9.53
2022-09-28T04:53:43.552Z,9.57
2022-09-28T05:13:43.469Z,9.51
2022-09-28T05:33:43.570Z,9.45
2022-09-28T05:53:43.515Z,9.44
2022-09-28T06:13:43.438Z,9.30
2022-09-28T06:33:43.541Z,9.53
2022-09-28T06:53:43.485Z,9.72
2022-09-28T07:13:43.398Z,9.83
2022-09-28T07:33:43.420Z,9.73
2022-09-28T07:53:43.462Z,10.00
2022-09-28T08:13:43.365Z,10.11
2022-09-28T08:33:43.394Z,10.18
2022-09-28T08:53:43.407Z,10.63
2022-09-28T09:13:43.327Z,9.73
2022-09-28T09:33:43.348Z,9.87
2022-09-28T09:53:43.367Z,10.17
2022-09-28T10:13:43.290Z,10.23
2022-09-28T10:33:43.315Z,10.37
2022-09-28T10:53:43.338Z,10.37
2022-09-28T11:13:43.265Z,10.56
2022-09-28T11:33:43.296Z,10.58
2022-09-28T11:53:43.217Z,10.67
2022-09-28T12:13:43.247Z,10.82
2022-09-28T12:33:43.271Z,10.79
2022-09-28T12:53:43.203Z,10.67
2022-09-28T13:13:43.223Z,10.70
2022-09-28T13:33:43.146Z,10.44
2022-09-28T13:53:43.173Z,10.51
2022-09-28T14:13:43.105Z,10.62
2022-09-28T14:33:43.132Z,10.61
2022-09-28T14:53:43.158Z,10.46
2022-09-28T15:13:43.076Z,10.44
2022-09-28T15:33:43.107Z,10.45
2022-09-28T15:53:43.050Z,10.38
2022-09-28T16:13:43.058Z,10.42
2022-09-28T16:33:43.088Z,10.35
2022-09-28T16:53:43.008Z,10.11
2022-09-28T17:13:43.151Z,9.90
2022-09-28T17:33:43.106Z,9.98
2022-09-28T17:53:43.148Z,9.90
2022-09-28T18:13:43.139Z,9.68
2022-09-28T18:53:43.134Z,9.63
2022-09-28T19:13:43.042Z,9.72
2022-09-28T19:33:43.078Z,9.64
2022-09-28T19:53:42.948Z,9.54
2022-09-28T20:13:43.029Z,9.59
2022-09-28T20:33:43.057Z,9.55
2022-09-28T20:53:43.026Z,9.55
2022-09-28T21:13:43.003Z,9.52
2022-09-28T21:33:43.037Z,9.59
2022-09-28T21:53:42.972Z,9.61
2022-09-28T22:13:42.976Z,9.62
2022-09-28T22:33:42.865Z,9.48
2022-09-28T22:53:42.787Z,9.39
2022-09-28T23:13:42.851Z,9.27
2022-09-28T23:33:42.792Z,9.27
2022-09-28T23:53:42.879Z,9.36
